createdAt,value
2022-08-19T00:01:37.972Z,98760.53
2022-08-19T00:04:10.487Z,98752.28
2022-08-19T00:06:40.980Z,98758.84
2022-08-19T00:09:11.675Z,98760.03
2022-08-19T00:11:40.148Z,98763.00
2022-08-19T00:14:10.824Z,98763.00
2022-08-19T00:16:39.757Z,98762.50
2022-08-19T00:19:10.107Z,98762.34
2022-08-19T00:21:40.830Z,98752.38
2022-08-19T00:24:09.874Z,98755.94
2022-08-19T00:26:38.843Z,98760.81
2022-08-19T00:29:08.949Z,98749.94
2022-08-19T00:31:37.123Z,98747.31
2022-08-19T00:34:05.558Z,98753.56
2022-08-19T00:36:35.143Z,98746.03
2022-08-19T00:39:03.295Z,98750.13
2022-08-19T00:41:31.897Z,98749.34
2022-08-19T00:44:05.380Z,98745.50
2022-08-19T00:46:34.666Z,98739.19
2022-08-19T00:49:06.345Z,98731.63
2022-08-19T00:51:36.505Z,98740.66
2022-08-19T00:54:05.034Z,98742.63
2022-08-19T00:56:33.738Z,98747.72
2022-08-19T00:59:02.746Z,98758.31
2022-08-19T01:01:33.842Z,98760.06
2022-08-19T01:04:02.077Z,98741.66
2022-08-19T01:06:31.887Z,98741.41
2022-08-19T01:09:02.005Z,98738.56
2022-08-19T01:11:30.286Z,98738.03
2022-08-19T01:13:58.658Z,98743.97
2022-08-19T01:16:30.104Z,98758.31
2022-08-19T01:18:58.583Z,98750.59
2022-08-19T01:21:30.969Z,98750.44
2022-08-19T01:24:00.531Z,98744.53
2022-08-19T01:26:31.209Z,98750.03
2022-08-19T01:29:02.097Z,98759.63
2022-08-19T01:31:33.580Z,98765.97
2022-08-19T01:34:03.079Z,98765.16
2022-08-19T01:36:33.719Z,98761.72
2022-08-19T01:39:06.318Z,98767.28
2022-08-19T01:41:35.909Z,98771.38
2022-08-19T01:44:17.869Z,98770.03
2022-08-19T01:46:50.350Z,98772.00
2022-08-19T01:49:20.121Z,98769.72
2022-08-19T01:51:48.488Z,98770.34
2022-08-19T01:54:27.216Z,98764.56
2022-08-19T01:57:00.728Z,98764.44
2022-08-19T01:59:28.967Z,98767.81
2022-08-19T02:01:57.227Z,98783.78
2022-08-19T02:04:26.543Z,98793.75
2022-08-19T02:06:54.741Z,98795.16
2022-08-19T02:09:24.676Z,98807.59
2022-08-19T02:11:52.996Z,98805.41
2022-08-19T02:14:21.182Z,98803.22
2022-08-19T02:16:49.356Z,98793.28
2022-08-19T02:19:17.511Z,98805.78
2022-08-19T02:21:46.853Z,98804.31
2022-08-19T02:24:15.032Z,98801.63
2022-08-19T02:26:44.787Z,98795.47
2022-08-19T02:29:12.955Z,98776.78
2022-08-19T02:31:41.080Z,98789.34
2022-08-19T02:34:09.573Z,98797.28
2022-08-19T02:36:42.221Z,98792.97
2022-08-19T02:39:10.033Z,98787.91
2022-08-19T02:41:38.269Z,98771.66
2022-08-19T02:46:56.488Z,98791.81
2022-08-19T02:49:26.384Z,98801.38
2022-08-19T02:51:55.394Z,98814.34
2022-08-19T02:54:23.516Z,98813.00
2022-08-19T02:56:51.609Z,98813.31
2022-08-19T02:59:22.907Z,98809.81
2022-08-19T03:01:51.426Z,98808.19
2022-08-19T03:04:20.307Z,98804.22
2022-08-19T03:06:49.250Z,98805.31
2022-08-19T03:09:17.949Z,98801.63
2022-08-19T03:11:46.518Z,98800.88
2022-08-19T03:14:16.977Z,98796.81
2022-08-19T03:16:48.866Z,98816.53
2022-08-19T03:19:19.595Z,98814.19
2022-08-19T03:21:48.064Z,98819.72
2022-08-19T03:24:17.089Z,98819.56
2022-08-19T03:26:48.264Z,98819.56
2022-08-19T03:29:22.220Z,98812.00
2022-08-19T03:32:01.609Z,98819.06
2022-08-19T03:34:32.347Z,98841.88
2022-08-19T03:37:02.322Z,98842.63
2022-08-19T03:39:31.234Z,98842.81
2022-08-19T03:42:29.267Z,98854.78
2022-08-19T03:44:49.169Z,98853.38
2022-08-19T03:47:18.830Z,98853.72
2022-08-19T03:49:47.367Z,98853.84
2022-08-19T03:52:15.407Z,98862.78
2022-08-19T03:54:43.721Z,98865.59
2022-08-19T03:57:12.202Z,98867.66
2022-08-19T03:59:40.954Z,98872.00
2022-08-19T04:02:11.655Z,98860.03
2022-08-19T04:04:44.278Z,98862.34
2022-08-19T04:07:16.841Z,98871.19
2022-08-19T04:09:45.121Z,98878.31
2022-08-19T04:12:13.348Z,98876.53
2022-08-19T04:14:42.308Z,98871.25
2022-08-19T04:17:10.496Z,98872.41
2022-08-19T04:19:39.661Z,98880.44
2022-08-19T04:22:09.161Z,98885.66
2022-08-19T04:24:37.632Z,98884.59
2022-08-19T04:27:06.545Z,98893.53
2022-08-19T04:29:35.169Z,98892.84
2022-08-19T04:32:09.120Z,98894.16
2022-08-19T04:35:01.478Z,98889.03
2022-08-19T04:37:35.538Z,98889.28
2022-08-19T04:40:24.355Z,98895.66
2022-08-19T04:42:52.727Z,98889.94
2022-08-19T04:45:23.023Z,98894.09
2022-08-19T04:47:58.905Z,98889.84
2022-08-19T04:50:42.749Z,98896.69
2022-08-19T04:53:13.348Z,98913.75
2022-08-19T04:55:44.344Z,98904.19
2022-08-19T04:58:12.495Z,98906.09
2022-08-19T05:00:41.944Z,98908.53
2022-08-19T05:03:10.487Z,98896.38
2022-08-19T05:05:45.101Z,98908.09
2022-08-19T05:08:30.793Z,98903.91
2022-08-19T05:11:10.092Z,98912.00
2022-08-19T05:13:43.320Z,98921.06
2022-08-19T05:16:12.627Z,98914.28
2022-08-19T05:18:58.721Z,98915.66
2022-08-19T05:21:44.618Z,98920.72
2022-08-19T05:24:15.514Z,98937.25
2022-08-19T05:29:12.524Z,98956.78
2022-08-19T05:31:41.711Z,98951.31
2022-08-19T05:34:18.208Z,98950.28
2022-08-19T05:36:48.729Z,98962.34
2022-08-19T05:39:20.977Z,98966.03
2022-08-19T05:41:50.952Z,98972.16
2022-08-19T05:44:20.723Z,98976.84
2022-08-19T05:46:48.996Z,99005.38
2022-08-19T05:49:18.142Z,99008.69
2022-08-19T05:51:46.223Z,99016.63
2022-08-19T05:54:15.971Z,99022.00
2022-08-19T05:56:48.654Z,99016.56
2022-08-19T05:59:18.065Z,99019.22
2022-08-19T06:01:51.508Z,99013.25
2022-08-19T06:04:23.289Z,99034.72
2022-08-19T06:06:54.289Z,99028.94
2022-08-19T06:09:23.788Z,99025.34
2022-08-19T06:11:56.090Z,99031.56
2022-08-19T06:14:30.463Z,99022.41
2022-08-19T06:17:02.643Z,99049.31
2022-08-19T06:19:34.722Z,99049.63
2022-08-19T06:22:09.314Z,99061.19
2022-08-19T06:24:37.496Z,99037.38
2022-08-19T06:27:07.439Z,99020.16
2022-08-19T06:29:36.375Z,99041.38
2022-08-19T06:32:05.787Z,99021.50
2022-08-19T06:34:35.314Z,99014.66
2022-08-19T06:37:03.658Z,99017.25
2022-08-19T06:39:40.506Z,99024.75
2022-08-19T06:42:12.831Z,99035.41
2022-08-19T06:44:43.674Z,99033.09
2022-08-19T06:47:23.154Z,99026.53
2022-08-19T06:50:03.239Z,99032.84
2022-08-19T06:52:34.235Z,99024.72
2022-08-19T06:55:06.219Z,99027.94
2022-08-19T06:57:36.386Z,99028.78
2022-08-19T07:00:07.141Z,99006.38
2022-08-19T07:02:38.618Z,98992.31
2022-08-19T07:05:07.947Z,99001.88
2022-08-19T07:07:36.896Z,99010.69
2022-08-19T07:10:07.845Z,99019.31
2022-08-19T07:12:38.327Z,99024.03
2022-08-19T07:15:09.685Z,99021.88
2022-08-19T07:17:42.046Z,99012.53
2022-08-19T07:20:11.113Z,99001.28
2022-08-19T07:22:39.655Z,98991.84
2022-08-19T07:25:08.988Z,98990.34
2022-08-19T07:27:53.241Z,98990.63
2022-08-19T07:30:26.295Z,98987.31
2022-08-19T07:32:57.289Z,98974.69
2022-08-19T07:35:26.759Z,98963.66
2022-08-19T07:37:55.021Z,98961.84
2022-08-19T07:40:23.626Z,98972.19
2022-08-19T07:42:53.062Z,98967.97
2022-08-19T07:45:21.530Z,98967.78
2022-08-19T07:47:51.382Z,98946.81
2022-08-19T07:50:21.006Z,98937.22
2022-08-19T07:52:50.565Z,98927.00
2022-08-19T07:55:40.212Z,98927.59
2022-08-19T07:58:13.906Z,98935.41
2022-08-19T08:00:42.720Z,98941.59
2022-08-19T08:03:11.023Z,98931.38
2022-08-19T08:05:56.568Z,98935.34
2022-08-19T08:08:51.636Z,98945.88
2022-08-19T08:11:24.128Z,98954.19
2022-08-19T08:14:01.309Z,98955.66
2022-08-19T08:16:35.413Z,98964.13
2022-08-19T08:19:12.629Z,98955.66
2022-08-19T08:21:49.320Z,98961.44
2022-08-19T08:24:18.003Z,98961.97
2022-08-19T08:26:52.256Z,98981.22
2022-08-19T08:29:27.305Z,98978.03
2022-08-19T08:32:03.678Z,98990.63
2022-08-19T08:34:42.516Z,98984.88
2022-08-19T08:37:10.921Z,98984.69
2022-08-19T08:39:39.156Z,98988.25
2022-08-19T08:42:16.823Z,98991.81
2022-08-19T08:47:36.760Z,99002.28
2022-08-19T08:50:09.506Z,99004.25
2022-08-19T08:52:39.731Z,99006.16
2022-08-19T08:55:14.797Z,99012.81
2022-08-19T08:57:52.207Z,99014.47
2022-08-19T09:00:25.077Z,99022.75
2022-08-19T09:02:53.212Z,99005.16
2022-08-19T09:05:26.073Z,98999.94
2022-08-19T09:08:00.688Z,99000.22
2022-08-19T09:10:34.642Z,98995.31
2022-08-19T09:13:21.254Z,98991.22
2022-08-19T09:15:55.496Z,98988.19
2022-08-19T09:18:23.940Z,98978.28
2022-08-19T09:20:52.013Z,98970.56
2022-08-19T09:23:26.649Z,98969.50
2022-08-19T09:25:55.607Z,98970.63
2022-08-19T09:28:27.056Z,98962.06
2022-08-19T09:30:57.013Z,98959.06
2022-08-19T09:33:26.189Z,98958.19
2022-08-19T09:36:08.394Z,98947.41
2022-08-19T09:38:37.485Z,98940.84
2022-08-19T09:41:15.383Z,98923.47
2022-08-19T09:43:48.035Z,98939.78
2022-08-19T09:46:19.277Z,98950.75
2022-08-19T09:48:51.545Z,98948.28
2022-08-19T09:51:22.465Z,98950.72
2022-08-19T09:53:54.619Z,98951.28
2022-08-19T09:56:23.691Z,98959.81
2022-08-19T09:58:52.978Z,98957.03
2022-08-19T10:01:25.484Z,98946.25
2022-08-19T10:03:56.353Z,98956.84
2022-08-19T10:06:44.046Z,98942.88
2022-08-19T10:09:15.973Z,98943.28
2022-08-19T10:11:54.829Z,98943.16
2022-08-19T10:14:24.678Z,98955.44
2022-08-19T10:16:54.343Z,98957.91
2022-08-19T10:19:25.726Z,98952.59
2022-08-19T10:21:55.800Z,98948.88
2022-08-19T10:24:29.657Z,98943.34
2022-08-19T10:26:58.942Z,98951.13
2022-08-19T10:29:31.883Z,98947.84
2022-08-19T10:32:03.531Z,98958.97
2022-08-19T10:34:33.133Z,98977.13
2022-08-19T10:37:02.399Z,98984.31
2022-08-19T10:39:32.884Z,98987.31
2022-08-19T10:42:14.076Z,99000.50
2022-08-19T10:44:42.869Z,99014.25
2022-08-19T10:47:17.546Z,98991.72
2022-08-19T10:50:12.288Z,98979.09
2022-08-19T10:52:49.773Z,98976.34
2022-08-19T10:55:37.927Z,98973.03
2022-08-19T10:58:06.545Z,98974.97
2022-08-19T11:00:36.809Z,98980.75
2022-08-19T11:03:06.930Z,99002.16
2022-08-19T11:05:40.751Z,99023.31
2022-08-19T11:08:23.176Z,99011.53
2022-08-19T11:11:00.287Z,98989.81
2022-08-19T11:13:29.860Z,98976.06
2022-08-19T11:16:07.373Z,98982.66
2022-08-19T11:18:38.805Z,98978.78
2022-08-19T11:21:11.227Z,98960.66
2022-08-19T11:23:39.423Z,98955.69
2022-08-19T11:26:07.633Z,98965.03
2022-08-19T11:28:35.973Z,98958.66
2022-08-19T11:31:04.412Z,98954.88
2022-08-19T11:33:33.827Z,98951.91
2022-08-19T11:36:06.013Z,98951.91
2022-08-19T11:38:34.906Z,98942.38
2022-08-19T11:41:06.074Z,98932.19
2022-08-19T11:43:37.265Z,98936.56
2022-08-19T11:46:07.850Z,98932.78
2022-08-19T11:48:36.601Z,98933.69
2022-08-19T11:51:09.677Z,98929.91
2022-08-19T11:53:38.785Z,98926.75
2022-08-19T11:56:09.460Z,98920.78
2022-08-19T11:58:38.117Z,98924.00
2022-08-19T12:01:09.782Z,98928.94
2022-08-19T12:03:38.066Z,98922.25
2022-08-19T12:06:09.888Z,98924.44
2022-08-19T12:08:38.333Z,98922.38
2022-08-19T12:11:08.864Z,98924.44
2022-08-19T12:13:37.948Z,98923.69
2022-08-19T12:16:13.471Z,98920.47
2022-08-19T12:18:44.596Z,98911.88
2022-08-19T12:21:14.854Z,98909.09
2022-08-19T12:23:43.315Z,98917.72
2022-08-19T12:26:13.288Z,98927.03
2022-08-19T12:28:42.448Z,98939.81
2022-08-19T12:31:13.045Z,98939.03
2022-08-19T12:33:43.917Z,98942.03
2022-08-19T12:36:16.239Z,98941.75
2022-08-19T12:38:45.127Z,98948.22
2022-08-19T12:41:22.952Z,98948.28
2022-08-19T12:43:52.198Z,98964.28
2022-08-19T12:46:22.287Z,98961.91
2022-08-19T12:48:56.191Z,98976.94
2022-08-19T12:51:26.385Z,98971.75
2022-08-19T12:53:54.493Z,98986.09
2022-08-19T12:56:23.525Z,98984.53
2022-08-19T12:58:52.811Z,98984.75
2022-08-19T13:01:23.014Z,98963.78
2022-08-19T13:03:53.565Z,98967.78
2022-08-19T13:06:22.453Z,98960.25
2022-08-19T13:08:55.442Z,98954.50
2022-08-19T13:11:26.448Z,98950.72
2022-08-19T13:13:56.296Z,98947.97
2022-08-19T13:16:24.602Z,98943.03
2022-08-19T13:18:55.348Z,98930.97
2022-08-19T13:21:25.894Z,98919.41
2022-08-19T13:23:55.844Z,98929.84
2022-08-19T13:26:24.342Z,98926.00
2022-08-19T13:29:09.709Z,98934.00
2022-08-19T13:31:56.326Z,98941.19
2022-08-19T13:34:31.594Z,98948.31
2022-08-19T13:37:00.004Z,98962.88
2022-08-19T13:39:29.524Z,98958.22
2022-08-19T13:41:57.822Z,98964.81
2022-08-19T13:44:25.988Z,98956.88
2022-08-19T13:46:54.552Z,98950.53
2022-08-19T13:49:26.398Z,98952.19
2022-08-19T13:51:54.493Z,98957.13
2022-08-19T13:54:22.807Z,98944.78
2022-08-19T13:56:52.309Z,98929.38
2022-08-19T13:59:20.637Z,98961.22
2022-08-19T14:01:48.827Z,98951.63
2022-08-19T14:04:16.941Z,98952.72
2022-08-19T14:06:45.061Z,98954.09
2022-08-19T14:09:13.229Z,98946.16
2022-08-19T14:11:41.396Z,98946.97
2022-08-19T14:14:16.228Z,98951.66
2022-08-19T14:16:44.916Z,98951.94
2022-08-19T14:19:13.049Z,98944.78
2022-08-19T14:21:42.035Z,98939.22
2022-08-19T14:24:10.526Z,98925.53
2022-08-19T14:26:39.517Z,98928.88
2022-08-19T14:29:07.693Z,98920.50
2022-08-19T14:31:37.405Z,98906.44
2022-08-19T14:34:07.865Z,98894.22
2022-08-19T14:36:39.057Z,98887.59
2022-08-19T14:39:08.213Z,98876.00
2022-08-19T14:41:36.516Z,98862.50
2022-08-19T14:44:05.030Z,98869.25
2022-08-19T14:46:33.549Z,98854.56
2022-08-19T14:49:09.580Z,98855.28
2022-08-19T14:51:37.927Z,98848.22
2022-08-19T14:54:06.375Z,98842.44
2022-08-19T14:56:34.530Z,98836.97
2022-08-19T14:59:02.890Z,98826.81
2022-08-19T15:01:31.113Z,98821.50
2022-08-19T15:03:59.280Z,98812.06
2022-08-19T15:06:29.330Z,98813.13
2022-08-19T15:09:01.940Z,98808.47
2022-08-19T15:11:33.497Z,98806.53
2022-08-19T15:14:02.489Z,98800.13
2022-08-19T15:16:30.743Z,98800.06
2022-08-19T15:19:02.102Z,98792.72
2022-08-19T15:21:32.270Z,98790.06
2022-08-19T15:24:01.811Z,98788.53
2022-08-19T15:26:33.019Z,98801.47
2022-08-19T15:29:03.126Z,98801.50
2022-08-19T15:31:38.207Z,98799.31
2022-08-19T15:34:06.958Z,98805.41
2022-08-19T15:36:41.127Z,98813.44
2022-08-19T15:39:10.325Z,98807.25
2022-08-19T15:41:39.617Z,98821.38
2022-08-19T15:44:11.470Z,98810.00
2022-08-19T15:46:43.802Z,98816.56
2022-08-19T15:49:13.668Z,98818.78
2022-08-19T15:51:44.635Z,98834.34
2022-08-19T15:54:16.757Z,98834.13
2022-08-19T15:57:02.220Z,98840.00
2022-08-19T15:59:48.229Z,98835.41
2022-08-19T16:02:37.231Z,98829.78
2022-08-19T16:05:26.882Z,98838.59
2022-08-19T16:07:56.639Z,98832.69
2022-08-19T16:10:28.160Z,98829.22
2022-08-19T16:12:57.796Z,98831.03
2022-08-19T16:15:27.562Z,98832.31
2022-08-19T16:17:57.345Z,98844.19
2022-08-19T16:20:29.485Z,98847.94
2022-08-19T16:23:04.124Z,98846.34
2022-08-19T16:25:32.671Z,98851.97
2022-08-19T16:28:07.231Z,98850.38
2022-08-19T16:30:39.069Z,98841.56
2022-08-19T16:33:09.075Z,98845.91
2022-08-19T16:35:42.563Z,98844.44
2022-08-19T16:38:16.581Z,98844.94
2022-08-19T16:40:46.800Z,98844.97
2022-08-19T16:43:15.084Z,98842.75
2022-08-19T16:45:44.131Z,98837.84
2022-08-19T16:48:12.561Z,98843.88
2022-08-19T16:50:49.345Z,98841.75
2022-08-19T16:53:23.270Z,98847.59
2022-08-19T16:55:57.240Z,98836.31
2022-08-19T16:58:28.261Z,98835.00
2022-08-19T17:01:01.900Z,98836.72
2022-08-19T17:03:36.154Z,98851.97
2022-08-19T17:06:18.513Z,98851.75
2022-08-19T17:08:51.682Z,98851.88
2022-08-19T17:11:21.266Z,98849.16
2022-08-19T17:13:50.953Z,98853.53
2022-08-19T17:16:20.164Z,98862.13
2022-08-19T17:18:52.907Z,98862.13
2022-08-19T17:21:21.689Z,98867.59
2022-08-19T17:23:51.272Z,98863.53
2022-08-19T17:26:19.755Z,98864.06
2022-08-19T17:28:49.790Z,98864.59
2022-08-19T17:31:19.185Z,98856.66
2022-08-19T17:33:48.991Z,98848.69
2022-08-19T17:36:17.676Z,98841.56
2022-08-19T17:38:46.013Z,98839.91
2022-08-19T17:41:15.623Z,98843.16
2022-08-19T17:43:44.351Z,98849.22
2022-08-19T17:46:18.320Z,98854.16
2022-08-19T17:48:51.817Z,98848.38
2022-08-19T17:51:24.701Z,98854.69
2022-08-19T17:53:55.859Z,98860.16
2022-08-19T17:56:25.559Z,98862.09
2022-08-19T17:59:00.008Z,98864.50
2022-08-19T18:01:34.708Z,98876.31
2022-08-19T18:04:18.918Z,98897.28
2022-08-19T18:06:53.036Z,98900.34
2022-08-19T18:09:25.154Z,98912.91
2022-08-19T18:11:57.140Z,98920.63
2022-08-19T18:14:33.671Z,98918.06
2022-08-19T18:17:09.682Z,98910.97
2022-08-19T18:19:41.055Z,98909.59
2022-08-19T18:22:12.732Z,98928.78
2022-08-19T18:24:41.783Z,98923.81
2022-08-19T18:27:11.506Z,98930.16
2022-08-19T18:29:40.351Z,98925.16
2022-08-19T18:32:12.729Z,98911.97
2022-08-19T18:34:42.009Z,98904.88
2022-08-19T18:37:11.092Z,98894.19
2022-08-19T18:39:58.683Z,98880.97
2022-08-19T18:42:45.605Z,98867.50
2022-08-19T18:45:31.671Z,98870.94
2022-08-19T18:48:27.046Z,98876.84
2022-08-19T18:50:57.708Z,98894.78
2022-08-19T18:53:26.431Z,98902.22
2022-08-19T18:55:55.247Z,98900.41
2022-08-19T18:58:28.322Z,98908.06
2022-08-19T19:00:57.542Z,98918.47
2022-08-19T19:03:26.850Z,98926.41
2022-08-19T19:05:55.055Z,98930.78
2022-08-19T19:08:27.029Z,98913.00
2022-08-19T19:10:57.022Z,98916.00
2022-08-19T19:13:28.791Z,98917.66
2022-08-19T19:15:57.438Z,98918.75
2022-08-19T19:18:30.628Z,98924.47
2022-08-19T19:21:02.598Z,98908.25
2022-08-19T19:23:31.359Z,98893.88
2022-08-19T19:25:59.625Z,98889.78
2022-08-19T19:28:29.587Z,98904.91
2022-08-19T19:30:58.916Z,98934.69
2022-08-19T19:33:27.554Z,98936.75
2022-08-19T19:35:56.565Z,98954.50
2022-08-19T19:38:26.393Z,98958.28
2022-08-19T19:40:54.641Z,98973.56
2022-08-19T19:43:23.393Z,98972.78
2022-08-19T19:45:53.402Z,98991.72
2022-08-19T19:48:21.695Z,99006.06
2022-08-19T19:50:54.286Z,99018.69
2022-08-19T19:53:26.268Z,99038.00
2022-08-19T19:55:58.894Z,99063.72
2022-08-19T19:58:30.237Z,99077.41
2022-08-19T20:01:01.356Z,99104.94
2022-08-19T20:03:36.272Z,99104.34
2022-08-19T20:06:04.495Z,99104.88
2022-08-19T20:08:50.215Z,99126.81
2022-08-19T20:11:31.519Z,99125.22
2022-08-19T20:14:01.643Z,99124.78
2022-08-19T20:16:31.806Z,99113.69
2022-08-19T20:19:01.351Z,99112.88
2022-08-19T20:21:32.377Z,99118.22
2022-08-19T20:24:09.503Z,99127.56
2022-08-19T20:26:38.374Z,99117.94
2022-08-19T20:29:11.194Z,99104.84
2022-08-19T20:31:59.202Z,99096.28
2022-08-19T20:34:28.815Z,99100.25
2022-08-19T20:36:58.999Z,99113.72
2022-08-19T20:39:27.160Z,99118.78
2022-08-19T20:41:56.594Z,99122.25
2022-08-19T20:44:25.528Z,99113.66
2022-08-19T20:46:54.344Z,99114.81
2022-08-19T20:49:27.717Z,99124.25
2022-08-19T20:51:56.595Z,99132.94
2022-08-19T20:54:25.513Z,99129.88
2022-08-19T20:56:54.005Z,99134.19
2022-08-19T20:59:22.850Z,99135.44
2022-08-19T21:01:52.347Z,99133.50
2022-08-19T21:04:21.310Z,99108.88
2022-08-19T21:06:51.312Z,99101.72
2022-08-19T21:09:20.147Z,99117.59
2022-08-19T21:11:48.810Z,99131.63
2022-08-19T21:14:17.339Z,99143.94
2022-08-19T21:16:46.258Z,99141.75
2022-08-19T21:19:14.638Z,99156.09
2022-08-19T21:21:42.813Z,99152.91
2022-08-19T21:24:12.357Z,99158.63
2022-08-19T21:26:42.892Z,99167.00
2022-08-19T21:29:11.079Z,99161.94
2022-08-19T21:31:39.162Z,99152.78
2022-08-19T21:34:07.392Z,99151.31
2022-08-19T21:36:35.702Z,99159.06
2022-08-19T21:39:04.071Z,99168.31
2022-08-19T21:41:33.686Z,99156.84
2022-08-19T21:44:01.783Z,99133.13
2022-08-19T21:46:29.935Z,99114.25
2022-08-19T21:48:58.098Z,99103.31
2022-08-19T21:51:27.522Z,99096.09
2022-08-19T21:53:55.802Z,99097.41
2022-08-19T21:56:24.675Z,99111.88
2022-08-19T21:58:55.605Z,99104.66
2022-08-19T22:01:23.986Z,99104.41
2022-08-19T22:03:53.755Z,99094.13
2022-08-19T22:06:25.986Z,99102.06
2022-08-19T22:08:57.080Z,99106.78
2022-08-19T22:11:25.726Z,99096.00
2022-08-19T22:13:56.680Z,99090.00
2022-08-19T22:16:25.761Z,99094.97
2022-08-19T22:18:54.164Z,99107.75
2022-08-19T22:21:34.578Z,99105.38
2022-08-19T22:24:09.515Z,99123.38
2022-08-19T22:26:37.614Z,99110.47
2022-08-19T22:29:07.589Z,99103.56
2022-08-19T22:31:37.650Z,99105.75
2022-08-19T22:34:06.303Z,99112.47
2022-08-19T22:36:35.737Z,99101.53
2022-08-19T22:39:04.832Z,99121.81
2022-08-19T22:41:33.703Z,99132.25
2022-08-19T22:44:01.865Z,99124.69
2022-08-19T22:46:34.288Z,99128.84
2022-08-19T22:49:02.872Z,99135.16
2022-08-19T22:51:48.923Z,99148.94
2022-08-19T22:54:17.399Z,99133.78
2022-08-19T22:56:45.711Z,99130.03
2022-08-19T22:59:14.000Z,99144.41
2022-08-19T23:01:43.459Z,99143.38
2022-08-19T23:04:11.742Z,99143.59
2022-08-19T23:06:42.045Z,99159.03
2022-08-19T23:09:10.722Z,99155.19
2022-08-19T23:11:42.059Z,99158.78
2022-08-19T23:14:11.446Z,99165.06
2022-08-19T23:16:41.562Z,99171.31
2022-08-19T23:19:12.037Z,99169.63
2022-08-19T23:21:40.474Z,99171.75
2022-08-19T23:24:09.231Z,99180.03
2022-08-19T23:26:37.531Z,99174.88
2022-08-19T23:29:24.255Z,99176.63
2022-08-19T23:31:52.364Z,99181.72
2022-08-19T23:34:21.822Z,99167.94
2022-08-19T23:36:50.546Z,99166.44
2022-08-19T23:39:19.431Z,99160.88
2022-08-19T23:41:48.364Z,99160.13
2022-08-19T23:44:16.478Z,99154.09
2022-08-19T23:46:54.722Z,99157.88
2022-08-19T23:49:26.506Z,99158.63
2022-08-19T23:51:55.908Z,99154.97
2022-08-19T23:54:34.285Z,99159.88
2022-08-19T23:57:13.822Z,99165.44
2022-08-19T23:59:45.327Z,99163.31
